Archival Weather

Václav Havel Intl Apt

Prague, Czechia (LKPR)

Report from: Friday, May 26, 2023 10:00 AM CEST
Current time: Friday, July 19, 2024 3:58 AM CEST

Current weather – Weather history – Daily summaries
Weather forecast

Temperature16.0°C (60.8°F)
Dew point10.0°C (50.0°F)
Winds 9 kts (4.6 m/s, 10.4 mph) Vrb
Winds variableWinds variable from Northwest (320°) to North-Northeast (20°)
Visibility6.2 mi. (10 km)
Clouds Few clouds 2,600 ft. (792 m)
Altimeter30.27 in.Hg (1025 mB)
Relative humidity68 %
Density altitude-103 ft. (-31 m)
Remarks No significant changes expected in the next two hours
Flight conditions Visual Meteorological Conditions
Raw dataLKPR 260800Z 35009KT 320V020 9999 FEW026 16/10 Q1025 NOSIG
An error has occurred. This application may no longer respond until reloaded. Reload 🗙